Pagrindinis puslapis
METAR-TAF:

METAR-TAF

Oro uostai :

Posadasas, Argentina

platuma: 27-22S, ilguma: 055-58W, Aukštis: 131 m

Dabartinis oras

Ataskaita buvo paskelbta 59 minutes, ne 16:00 UTC
Vėjas 6 kt iš Šiaurės/Šiaurės Rytų
Temperatūra 34°C
Drėgmė 41%
Slėgis 1008 hPa
Matomumas: 7000 m

METAR: SARP 151600Z 02006KT 7000 NSC 34/19 Q1008

Laikas: 13:59 (16:59 UTC)

Prognozė

Ataskaita buvo paskelbta 5 valandos ir 59 minutes, ne 11:00 UTC
Prognozė galioja nuo 15 metu 12 UTC su 16 metu 12 UTC
Vėjas 5 kt iš Rytų
Matomumas: 6000 m
Tapsmas
nuo 15 metu 13 UTC su 15 metu 14 UTC
Vėjas 15 kt iš Šiaurės Rytų
Matomumas 10 km arba daugiau
Mažai debesys ne aukštis 3500 ft
Tapsmas
nuo 16 metu 07 UTC su 16 metu 09 UTC
Vėjas 15 kt iš Pietvakarių su gūsio iki 30 kt
Matomumas 10 km arba daugiau
Apsiniaukę ne aukštis 2500 ft

TAF: SARP 151100Z 1512/1612 09005KT 6000 NSC TX30/1518Z TN18/1612Z BECMG 1513/1514 05015KT 9999 FEW035 BECMG 1607/1609 22015G30KT 9999 OVC025

Orai ataskaitas ir orų prognozės (METAR, TAF).

turimą stotys yra geltonos ir raudonos taškus žemėlapyje.

Perkelti pele per norėdami pamatyti stoties vardą.

Tada spustelėkite, norėdami matyti oro stebėjimo ir prognozės.

Norėdami pakeisti žemėlapį: spustelėkite ant žalios mygtukų su juodo kryžiaus žemyn,; žalią mygtuką su brūkšneliu, jei norite nutolinti; arba žalių rodyklių gretimoms žemėlapius.


METAR-TAF: